Terminal Aerodrome Forecast
Issued by NWS Melbourne, FL

Home | Current Version | Previous Version | Text Only | Print | Product List | Glossary On
Versions: 1 2 3 4 5 6 7 8 9 10 11 12
000
FTUS42 KMLB 242300
TAFMLB
TAF
KMLB 242320Z 2500/2524 12012KT P6SM FEW040
     FM250200 16005KT P6SM FEW080 SCT250
     FM251400 26007KT P6SM FEW040=

USA.gov is the U.S. government's official web portal to all federal, state and local government web resources and services.